Time;durP1;ratioP1;P1;durP2;ratioP2;P2;SDS_P1;SDS_P2;PMS_P1;PMS_P2;Temp;Humidity;BMP_temperature;BMP_pressure;BME280_temperature;BME280_humidity;BME280_pressure;Samples;Min_cycle;Max_cycle;Signal;HPM_P1;HPM_P2
2021/04/05 00:00:22;;;;;;;2.17;0.95;;;;;;;8.38;37.70;100142.78;4979461;28;20026;-78
2021/04/05 00:02:48;;;;;;;1.98;1.30;;;;;;;8.25;37.83;100130.03;4979478;28;20038;-78
2021/04/05 00:05:26;;;;;;;2.20;1.35;;;;;;;8.28;37.82;100134.91;4978816;28;20494;-78
2021/04/05 00:07:52;;;;;;;1.67;1.50;;;;;;;8.42;37.06;100137.34;4996256;28;20030;-78
2021/04/05 00:10:28;;;;;;;2.15;1.75;;;;;;;8.43;37.52;100135.38;4978760;28;20089;-78
2021/04/05 00:12:56;;;;;;;1.45;1.17;;;;;;;8.20;36.74;100102.56;4978714;28;20026;-78
2021/04/05 00:15:21;;;;;;;2.58;1.42;;;;;;;8.41;37.24;100132.94;4978634;28;20029;-78
2021/04/05 00:17:48;;;;;;;1.42;1.02;;;;;;;8.39;37.13;100130.53;4977947;28;20026;-78
2021/04/05 00:20:21;;;;;;;1.42;1.15;;;;;;;8.36;38.61;100128.47;4979163;28;20030;-78
2021/04/05 00:22:47;;;;;;;2.45;1.23;;;;;;;8.38;37.56;100128.91;4996565;28;20034;-78
2021/04/05 00:25:13;;;;;;;1.25;0.95;;;;;;;8.43;37.21;100113.19;4980057;28;20034;-79
2021/04/05 00:27:40;;;;;;;1.40;1.30;;;;;;;8.49;37.23;100118.13;4980062;28;20030;-78
2021/04/05 00:30:18;;;;;;;0.77;0.77;;;;;;;8.47;36.98;100122.41;4978964;28;20034;-79
2021/04/05 00:32:48;;;;;;;0.93;0.93;;;;;;;8.37;38.07;100113.44;4995872;28;20030;-78
2021/04/05 00:35:26;;;;;;;0.80;0.80;;;;;;;8.41;37.71;100102.44;4961836;28;20034;-78
2021/04/05 00:37:54;;;;;;;2.10;1.10;;;;;;;8.47;38.02;100106.59;4995505;28;20405;-78
2021/04/05 00:40:30;;;;;;;0.80;0.80;;;;;;;8.35;37.79;100101.84;4995536;28;20034;-79
2021/04/05 00:42:56;;;;;;;0.60;0.60;;;;;;;8.37;37.25;100099.56;4978873;28;20408;-78
2021/04/05 00:45:24;;;;;;;1.23;1.00;;;;;;;8.42;37.79;100100.50;4979919;28;20026;-79
2021/04/05 00:47:55;;;;;;;2.25;1.73;;;;;;;8.40;37.51;100095.28;4983949;28;20026;-79
2021/04/05 00:50:47;;;;;;;1.63;1.52;;;;;;;8.19;37.80;100064.13;4980642;28;20026;-79
2021/04/05 00:53:15;;;;;;;1.60;1.38;;;;;;;8.30;37.67;100068.00;4967351;28;20039;-78
2021/04/05 00:55:42;;;;;;;1.30;1.20;;;;;;;8.34;37.61;100091.91;4977831;28;20117;-78
2021/04/05 00:58:08;;;;;;;1.05;1.05;;;;;;;8.45;37.34;100094.22;4977843;28;20037;-79
2021/04/05 01:00:42;;;;;;;1.30;1.10;;;;;;;8.38;37.91;100079.00;4978412;28;20027;-78
2021/04/05 01:03:14;;;;;;;1.45;1.25;;;;;;;8.43;37.84;100086.28;4977826;28;20129;-78
2021/04/05 01:05:43;;;;;;;1.17;0.60;;;;;;;8.46;37.72;100081.97;4995431;28;20436;-78
2021/04/05 01:08:10;;;;;;;1.15;1.05;;;;;;;8.40;37.81;100086.97;4961896;28;20026;-79
2021/04/05 01:10:36;;;;;;;0.80;0.80;;;;;;;8.37;37.65;100082.13;4978186;28;20038;-78
2021/04/05 01:13:02;;;;;;;1.75;0.80;;;;;;;8.35;38.02;100076.09;4977562;28;20065;-78
2021/04/05 01:15:28;;;;;;;2.17;1.17;;;;;;;8.36;37.27;100073.00;4977484;28;20029;-79
2021/04/05 01:17:54;;;;;;;2.35;0.82;;;;;;;8.43;37.38;100079.94;4994657;28;20039;-78
2021/04/05 01:20:20;;;;;;;0.90;0.90;;;;;;;8.36;37.16;100075.78;4995152;28;20026;-78
2021/04/05 01:22:49;;;;;;;0.98;0.90;;;;;;;8.51;36.15;100076.19;4977668;28;20034;-78
2021/04/05 01:25:17;;;;;;;1.73;1.52;;;;;;;8.35;37.19;100063.03;4977878;28;20497;-78
2021/04/05 01:27:43;;;;;;;1.40;1.30;;;;;;;8.42;36.99;100068.03;4977796;28;20038;-78
2021/04/05 01:30:09;;;;;;;1.60;1.50;;;;;;;8.19;36.48;100011.44;4977294;28;20027;-78
2021/04/05 01:32:37;;;;;;;3.55;2.92;;;;;;;8.39;36.98;100063.97;4977546;28;20089;-78
2021/04/05 01:35:03;;;;;;;2.00;1.80;;;;;;;8.42;36.71;100065.25;4977728;28;20484;-78
2021/04/05 01:37:29;;;;;;;1.73;1.63;;;;;;;8.39;36.41;100052.09;4994262;28;20049;-78
2021/04/05 01:39:54;;;;;;;3.40;2.00;;;;;;;8.43;36.76;100058.56;4977436;28;20034;-78
2021/04/05 01:42:20;;;;;;;4.35;2.17;;;;;;;8.42;36.48;100062.47;4977390;28;20038;-78
2021/04/05 01:44:48;;;;;;;3.15;2.75;;;;;;;8.29;36.82;100044.22;4976742;28;20367;-78
2021/04/05 01:47:13;;;;;;;1.60;1.50;;;;;;;8.36;36.81;100047.22;4976665;28;20030;-79
2021/04/05 01:49:40;;;;;;;1.50;1.40;;;;;;;8.38;36.81;100045.75;4977508;28;20084;-78
2021/04/05 01:52:15;;;;;;;3.03;1.67;;;;;;;8.24;36.81;100025.06;4977008;28;20034;-79
2021/04/05 01:54:41;;;;;;;3.05;2.40;;;;;;;8.37;37.30;100030.28;4977784;28;20093;-78
2021/04/05 01:57:10;;;;;;;3.88;3.50;;;;;;;8.37;37.65;100030.28;4976953;28;20125;-78
2021/04/05 01:59:37;;;;;;;8.07;4.72;;;;;;;8.35;37.77;100032.53;4994900;28;20026;-79
2021/04/05 02:02:05;;;;;;;2.63;2.42;;;;;;;8.25;37.39;100023.91;4977487;28;20059;-79
2021/04/05 02:04:34;;;;;;;2.03;1.83;;;;;;;8.21;38.09;100011.94;4961221;28;20041;-78
2021/04/05 02:07:00;;;;;;;1.70;1.60;;;;;;;8.19;38.17;100012.25;4976830;28;20037;-79
2021/04/05 02:09:26;;;;;;;1.40;1.30;;;;;;;8.37;38.21;100027.50;4977363;28;20034;-78
2021/04/05 02:11:52;;;;;;;1.20;1.10;;;;;;;8.39;38.98;100027.94;4976832;28;20511;-78
2021/04/05 02:14:17;;;;;;;2.00;1.63;;;;;;;8.39;38.72;100024.38;4977350;28;20041;-78
2021/04/05 02:16:46;;;;;;;1.70;1.27;;;;;;;8.28;39.11;100024.03;4976801;28;20377;-78
2021/04/05 02:19:16;;;;;;;1.88;1.70;;;;;;;8.36;39.58;100016.72;4976776;28;20062;-78
2021/04/05 02:21:46;;;;;;;2.15;2.00;;;;;;;8.30;39.19;100018.13;4977244;28;20033;-78
2021/04/05 02:24:15;;;;;;;1.98;1.45;;;;;;;8.24;39.73;100011.22;4961540;28;20041;-78
2021/04/05 02:26:46;;;;;;;3.47;1.42;;;;;;;8.29;39.51;100020.09;4977000;28;20041;-78
2021/04/05 02:29:12;;;;;;;2.03;1.42;;;;;;;8.29;40.39;100002.66;4977181;28;20132;-78
2021/04/05 02:31:38;;;;;;;2.55;1.20;;;;;;;8.28;39.75;100001.03;4976950;28;20038;-78
2021/04/05 02:34:05;;;;;;;2.88;1.30;;;;;;;8.29;40.14;99994.34;4976618;28;20350;-78
2021/04/05 02:36:32;;;;;;;1.02;0.93;;;;;;;8.40;39.59;100004.59;4976459;28;20097;-78
2021/04/05 02:39:06;;;;;;;1.00;1.00;;;;;;;8.40;39.82;100003.78;4977265;28;20382;-79
2021/04/05 02:41:34;;;;;;;2.40;1.27;;;;;;;8.24;39.85;99984.28;4976808;28;20030;-78
2021/04/05 02:44:00;;;;;;;1.27;1.00;;;;;;;8.34;39.80;100000.44;4994222;28;20022;-78
2021/04/05 02:46:28;;;;;;;2.83;1.13;;;;;;;8.29;40.14;99994.34;4960673;28;20041;-78
2021/04/05 02:48:57;;;;;;;1.35;1.02;;;;;;;8.36;39.69;99995.38;4976973;28;20097;-78
2021/04/05 02:51:23;;;;;;;2.35;1.15;;;;;;;8.23;39.57;99987.44;4977056;28;20034;-78
2021/04/05 02:53:52;;;;;;;1.08;1.00;;;;;;;8.31;40.79;100000.31;4976958;28;20465;-78
2021/04/05 02:56:19;;;;;;;2.30;1.10;;;;;;;8.30;40.13;99991.19;4976639;28;20045;-78
2021/04/05 02:58:49;;;;;;;1.33;0.70;;;;;;;8.30;40.38;99987.63;4980703;28;20121;-78
2021/04/05 03:01:16;;;;;;;1.75;1.00;;;;;;;8.15;40.45;99978.13;4997861;28;20034;-78
2021/04/05 03:03:44;;;;;;;2.35;0.85;;;;;;;8.33;39.84;99990.50;4980605;28;20022;-79
2021/04/05 03:06:14;;;;;;;1.23;0.80;;;;;;;8.24;40.64;99975.97;4969149;28;20034;-79
2021/04/05 03:08:40;;;;;;;1.48;0.95;;;;;;;8.11;40.68;99971.66;4985537;28;20023;-79
2021/04/05 03:11:06;;;;;;;0.70;0.70;;;;;;;8.13;40.32;99985.94;4979790;28;20034;-78
2021/04/05 03:13:34;;;;;;;1.40;0.80;;;;;;;8.05;40.15;99964.75;4979843;28;20026;-79
2021/04/05 03:16:03;;;;;;;1.05;1.00;;;;;;;8.02;40.44;99970.97;4979760;28;20532;-79
2021/04/05 03:18:31;;;;;;;2.85;1.00;;;;;;;8.20;40.42;99974.25;4997482;28;20046;-78
2021/04/05 03:20:57;;;;;;;3.67;2.22;;;;;;;8.12;40.25;99971.28;4979888;28;20026;-78
2021/04/05 03:23:23;;;;;;;2.67;2.25;;;;;;;7.93;40.45;99956.44;4979604;28;20038;-78
2021/04/05 03:25:49;;;;;;;2.55;2.03;;;;;;;8.00;40.13;99973.31;4979508;28;20125;-78
2021/04/05 03:28:21;;;;;;;1.63;1.50;;;;;;;7.90;40.71;99979.34;4979386;28;20105;-78
2021/04/05 03:31:01;;;;;;;1.77;1.67;;;;;;;7.82;40.34;99979.09;4980057;28;20030;-78
2021/04/05 03:33:42;;;;;;;1.55;1.00;;;;;;;7.90;41.27;99974.59;4979979;28;20030;-78
2021/04/05 03:36:14;;;;;;;2.03;1.90;;;;;;;7.78;41.16;99958.00;4996564;28;20477;-78
2021/04/05 03:38:43;;;;;;;3.75;2.08;;;;;;;7.75;41.71;99967.81;4975622;28;20051;-78
2021/04/05 03:41:26;;;;;;;1.70;1.58;;;;;;;7.79;41.35;99971.50;4976050;28;20027;-78
2021/04/05 03:43:58;;;;;;;1.30;1.05;;;;;;;7.97;41.32;99968.44;4975998;28;20031;-78
2021/04/05 03:46:29;;;;;;;1.40;1.10;;;;;;;8.03;41.23;99975.34;4976018;28;20027;-78
2021/04/05 03:49:01;;;;;;;1.48;0.93;;;;;;;8.00;41.46;99970.53;4976431;28;20039;-78
2021/04/05 03:51:41;;;;;;;2.55;2.22;;;;;;;7.83;41.47;99958.56;4976120;28;20033;-78
2021/04/05 03:54:12;;;;;;;2.92;1.70;;;;;;;7.96;41.67;99966.84;4976460;28;20426;-78
2021/04/05 03:56:41;;;;;;;1.35;1.02;;;;;;;8.00;41.16;99981.63;4976123;28;20122;-78
2021/04/05 03:59:11;;;;;;;1.17;0.98;;;;;;;8.02;41.62;99977.31;4975744;28;20155;-78
2021/04/05 04:01:46;;;;;;;1.33;1.20;;;;;;;7.87;41.01;99975.28;4976307;28;20122;-78
2021/04/05 04:04:50;;;;;;;0.98;0.98;;;;;;;7.86;40.95;99977.25;4977232;28;20069;-78
2021/04/05 04:10:12;;;;;;;3.45;1.02;;;;;;;7.92;41.16;99982.53;4953692;28;20185;-78
2021/04/05 04:12:40;;;;;;;1.55;0.93;;;;;;;7.87;41.55;99992.72;4977056;28;20046;-78
2021/04/05 04:15:07;;;;;;;1.90;1.70;;;;;;;7.81;42.13;99980.25;4975454;28;20027;-78
2021/04/05 04:17:34;;;;;;;1.15;1.08;;;;;;;7.91;41.95;99992.03;4975486;28;20034;-78
2021/04/05 04:20:04;;;;;;;1.13;1.02;;;;;;;7.78;42.45;99992.06;4977116;28;20027;-78
2021/04/05 04:22:32;;;;;;;2.15;1.15;;;;;;;7.88;42.30;99994.34;4975632;28;20386;-78
2021/04/05 04:24:59;;;;;;;1.27;1.17;;;;;;;7.80;41.60;100000.00;4976532;28;20167;-78
2021/04/05 04:27:25;;;;;;;2.08;0.80;;;;;;;7.68;42.57;99988.94;4976551;28;20031;-78
2021/04/05 04:29:55;;;;;;;1.48;1.33;;;;;;;7.62;43.84;99999.47;4975135;28;20074;-78
2021/04/05 04:32:25;;;;;;;1.60;1.13;;;;;;;7.59;43.31;100008.44;4975206;28;20031;-78
2021/04/05 04:34:51;;;;;;;1.00;0.82;;;;;;;7.63;42.54;99998.28;4975966;28;20122;-78
2021/04/05 04:37:17;;;;;;;3.30;0.90;;;;;;;7.67;42.94;100007.53;4975093;28;20051;-78
2021/04/05 04:39:43;;;;;;;1.85;0.90;;;;;;;7.72;42.77;100012.81;4975167;28;20046;-78
2021/04/05 04:42:11;;;;;;;1.65;0.90;;;;;;;7.84;43.35;100009.25;4975461;28;20125;-78
2021/04/05 04:44:37;;;;;;;1.40;0.82;;;;;;;7.74;43.22;100002.19;4974936;28;20023;-78
2021/04/05 04:47:03;;;;;;;0.80;0.80;;;;;;;7.75;43.83;100006.59;4974717;28;20399;-78
2021/04/05 04:49:29;;;;;;;2.47;1.00;;;;;;;7.79;42.75;100001.97;4974731;28;20023;-78
2021/04/05 04:51:54;;;;;;;1.17;0.88;;;;;;;7.76;42.82;100005.41;4975157;28;20038;-78
2021/04/05 04:54:20;;;;;;;1.30;1.20;;;;;;;7.86;43.42;100027.09;4975080;28;20117;-78
2021/04/05 04:56:46;;;;;;;2.22;1.20;;;;;;;7.76;43.67;100007.38;4976047;28;20045;-78
2021/04/05 04:59:12;;;;;;;1.55;1.08;;;;;;;8.23;42.18;99993.78;4974926;28;20027;-78
2021/04/05 05:01:39;;;;;;;1.15;1.08;;;;;;;9.07;40.27;100020.69;4976082;28;20034;-78
2021/04/05 05:04:17;;;;;;;0.90;0.90;;;;;;;9.83;39.01;100008.25;4975145;28;20091;-78
2021/04/05 05:06:43;;;;;;;1.92;1.10;;;;;;;10.42;37.14;100006.38;4974886;28;20038;-78
2021/04/05 05:09:09;;;;;;;2.13;1.02;;;;;;;11.13;36.41;100024.47;4974574;28;20117;-78
2021/04/05 05:11:36;;;;;;;1.25;1.10;;;;;;;11.84;35.71;100019.28;4974576;28;20118;-78
2021/04/05 05:14:05;;;;;;;2.10;0.65;;;;;;;12.35;34.50;100021.59;4975927;28;20474;-78
2021/04/05 05:16:31;;;;;;;3.28;1.10;;;;;;;13.00;33.31;100023.97;4974793;28;20026;-78
2021/04/05 05:18:59;;;;;;;2.55;1.08;;;;;;;13.05;32.56;100032.00;4975368;28;20037;-78
2021/04/05 05:21:40;;;;;;;1.55;1.20;;;;;;;12.95;32.90;100031.91;4974839;28;20043;-79
2021/04/05 05:24:10;;;;;;;1.08;0.88;;;;;;;13.76;32.35;100025.47;4975985;28;20034;-79
2021/04/05 05:26:37;;;;;;;1.08;0.93;;;;;;;14.24;31.51;100047.75;4978419;28;20035;-79
2021/04/05 05:29:07;;;;;;;1.75;1.20;;;;;;;14.74;31.42;100040.41;4977770;28;20081;-78
2021/04/05 05:31:38;;;;;;;2.67;1.40;;;;;;;15.04;30.57;100044.91;4974429;28;20035;-77
2021/04/05 05:34:06;;;;;;;2.50;1.38;;;;;;;15.04;30.68;100048.53;4971377;28;20520;-78
2021/04/05 05:36:31;;;;;;;1.92;1.45;;;;;;;15.43;29.51;100042.19;4975397;28;20038;-77
2021/04/05 05:38:59;;;;;;;3.10;1.60;;;;;;;16.06;29.82;100039.78;4977244;28;20092;-77
2021/04/05 05:41:43;;;;;;;3.88;1.65;;;;;;;15.79;29.56;100045.03;4977119;28;20038;-78
2021/04/05 05:44:14;;;;;;;2.38;1.77;;;;;;;15.74;29.56;100045.44;4994600;28;20461;-77
2021/04/05 05:46:55;;;;;;;2.03;1.17;;;;;;;15.35;30.27;100047.00;4977457;28;20122;-78
2021/04/05 05:49:35;;;;;;;2.30;0.90;;;;;;;15.46;29.97;100058.22;4994491;28;20113;-77
2021/04/05 05:52:13;;;;;;;1.67;1.05;;;;;;;15.68;29.01;100057.06;4977349;28;20089;-77
2021/04/05 05:54:57;;;;;;;1.58;0.90;;;;;;;15.93;28.68;100053.44;4977027;28;20029;-77
2021/04/05 05:57:48;;;;;;;3.47;1.20;;;;;;;15.83;29.28;100054.25;4977379;28;20026;-77
2021/04/05 06:00:32;;;;;;;1.77;1.42;;;;;;;16.39;28.52;100058.16;4977332;28;20507;-77
2021/04/05 06:03:31;;;;;;;12.82;9.95;;;;;;;17.26;27.29;100065.84;4977292;28;20374;-77
2021/04/05 06:06:21;;;;;;;7.28;5.20;;;;;;;17.21;27.29;100058.63;4976941;28;20023;-78
2021/04/05 06:09:02;;;;;;;4.93;3.72;;;;;;;17.75;27.05;100050.63;4976802;28;20030;-78
2021/04/05 06:11:52;;;;;;;3.72;3.17;;;;;;;18.14;26.24;100069.16;4994956;28;20035;-78
2021/04/05 06:14:31;;;;;;;5.25;4.22;;;;;;;18.49;26.14;100061.56;4977428;28;20034;-78
2021/04/05 06:17:29;;;;;;;3.05;2.75;;;;;;;18.58;25.09;100059.81;4994013;28;20022;-77
2021/04/05 06:20:10;;;;;;;3.15;2.85;;;;;;;19.55;24.68;100067.03;4977066;28;20034;-77
2021/04/05 06:23:07;;;;;;;2.88;1.63;;;;;;;18.81;24.80;100070.47;4994449;28;20026;-77
2021/04/05 06:25:56;;;;;;;1.30;1.20;;;;;;;19.13;24.44;100052.34;4976719;28;20042;-77
2021/04/05 06:28:22;;;;;;;1.13;0.93;;;;;;;19.37;23.72;100042.69;4976509;28;20026;-77
2021/04/05 06:31:06;;;;;;;1.00;1.00;;;;;;;18.90;23.81;100075.56;4977134;28;20026;-77
2021/04/05 06:33:41;;;;;;;1.52;1.00;;;;;;;19.53;23.33;100077.94;4980831;28;20026;-77
2021/04/05 06:36:20;;;;;;;0.98;0.93;;;;;;;19.90;21.91;100068.50;4964696;28;20108;-77
2021/04/05 06:39:24;;;;;;;1.48;1.10;;;;;;;20.26;21.79;100082.78;4980430;28;20054;-77
2021/04/05 06:42:01;;;;;;;;;;;;;;;20.37;22.69;100085.41;4966029;28;20140;-77
2021/04/05 06:44:50;;;;;;;2.55;2.35;;;;;;;20.65;22.26;100084.09;4980201;28;19914;-77
2021/04/05 06:47:19;;;;;;;1.15;1.08;;;;;;;20.21;22.53;100097.41;4980165;28;20116;-77
2021/04/05 06:49:53;;;;;;;2.30;1.27;;;;;;;20.57;22.79;100089.09;4980463;28;20061;-77
2021/04/05 06:52:37;;;;;;;1.40;1.30;;;;;;;20.75;22.55;100079.44;4983193;28;20027;-76
2021/04/05 06:55:14;;;;;;;2.20;1.17;;;;;;;21.11;21.57;100085.16;4983596;28;20095;-77
2021/04/05 06:57:45;;;;;;;1.15;1.15;;;;;;;21.42;21.25;100080.84;4979927;28;20022;-77
2021/04/05 07:00:21;;;;;;;2.28;1.30;;;;;;;19.84;22.16;100089.97;4979877;28;20037;-77
2021/04/05 07:03:31;;;;;;;1.35;1.10;;;;;;;19.43;22.82;100093.00;4980235;28;20496;-75
2021/04/05 07:06:34;;;;;;;2.63;1.52;;;;;;;19.00;23.03;100091.56;4980017;28;20536;-78
2021/04/05 07:09:37;;;;;;;1.65;1.10;;;;;;;19.58;22.97;100089.53;4979772;28;20041;-75
2021/04/05 07:12:24;;;;;;;1.15;1.00;;;;;;;18.49;24.07;100084.09;4979817;28;20061;-78
2021/04/05 07:15:04;;;;;;;1.52;1.30;;;;;;;18.43;24.21;100080.13;4978904;28;20037;-76
2021/04/05 07:17:29;;;;;;;1.23;1.05;;;;;;;19.28;23.11;100084.75;4979688;28;20076;-76
2021/04/05 07:20:16;;;;;;;2.15;1.40;;;;;;;18.24;24.04;100061.84;4979597;28;20038;-77
2021/04/05 07:23:03;;;;;;;3.08;2.75;;;;;;;19.11;23.79;100080.13;4979913;28;20377;-77
2021/04/05 07:25:55;;;;;;;1.70;1.52;;;;;;;18.71;24.08;100074.22;4980136;28;20030;-75
2021/04/05 07:28:36;;;;;;;2.70;1.80;;;;;;;18.72;25.18;100081.44;4996127;28;20030;-75
2021/04/05 07:31:08;;;;;;;1.52;1.02;;;;;;;18.66;25.21;100083.09;4979296;28;20030;-75
2021/04/05 07:33:38;;;;;;;1.98;1.50;;;;;;;19.56;24.95;100091.19;4979295;28;20101;-76
2021/04/05 07:36:20;;;;;;;1.52;1.23;;;;;;;19.75;22.03;100073.56;4979382;28;20022;-76
2021/04/05 07:39:09;;;;;;;2.22;1.30;;;;;;;20.15;22.20;100088.63;4975559;28;20054;-77
2021/04/05 07:41:53;;;;;;;3.20;2.53;;;;;;;19.84;22.23;100090.75;4975854;28;20121;-77
2021/04/05 07:44:36;;;;;;;;;;;;;;;21.04;21.54;100090.94;4975095;28;20034;-77
2021/04/05 07:47:14;;;;;;;3.63;1.33;;;;;;;20.21;21.67;100094.56;4975912;28;19914;-77
2021/04/05 07:50:04;;;;;;;2.30;1.70;;;;;;;19.26;22.05;100078.72;4975954;28;20034;-77
2021/04/05 07:52:48;;;;;;;3.20;1.58;;;;;;;18.00;22.82;100080.56;4977824;28;20070;-77
2021/04/05 07:55:14;;;;;;;;;;;;;;;19.28;22.38;100095.22;4976318;28;20030;-77
2021/04/05 07:58:10;;;;;;;2.53;1.00;;;;;;;19.48;22.01;100098.94;4975774;28;19910;-77
2021/04/05 08:00:45;;;;;;;2.72;2.45;;;;;;;18.52;22.46;100086.88;4975768;28;20035;-78
2021/04/05 08:03:22;;;;;;;2.33;1.55;;;;;;;18.13;23.14;100090.09;4976018;28;20023;-77
2021/04/05 08:06:03;;;;;;;3.95;1.33;;;;;;;18.54;21.92;100094.91;4975645;28;20504;-77
2021/04/05 08:08:50;;;;;;;1.50;1.40;;;;;;;17.97;23.04;100087.03;4975473;28;20031;-77
2021/04/05 08:11:22;;;;;;;0.88;0.88;;;;;;;19.19;22.49;100078.03;4976609;28;20527;-77
2021/04/05 08:14:03;;;;;;;1.50;1.40;;;;;;;20.14;21.22;100089.06;4975069;28;20027;-78
2021/04/05 08:16:39;;;;;;;3.72;2.75;;;;;;;19.80;20.32;100098.47;4975123;28;20529;-77
2021/04/05 08:19:19;;;;;;;2.17;1.30;;;;;;;18.66;21.80;100065.41;4975321;28;20087;-77
2021/04/05 08:22:14;;;;;;;1.38;1.25;;;;;;;19.96;21.54;100071.63;4975623;28;20035;-77
2021/04/05 08:25:00;;;;;;;2.28;1.10;;;;;;;20.42;20.29;100082.88;4971144;28;20497;-77
2021/04/05 08:27:31;;;;;;;2.13;1.55;;;;;;;20.47;20.41;100087.28;4974911;28;20047;-77
2021/04/05 08:30:04;;;;;;;1.55;1.45;;;;;;;19.01;21.87;100087.50;4975487;28;20027;-77
2021/04/05 08:32:41;;;;;;;1.60;1.50;;;;;;;19.58;21.96;100081.06;4975917;28;20058;-78
2021/04/05 08:35:28;;;;;;;1.40;1.30;;;;;;;18.68;22.06;100083.50;4975004;28;20061;-77
2021/04/05 08:38:05;;;;;;;4.18;2.70;;;;;;;18.67;22.27;100079.06;4974962;28;20057;-78
2021/04/05 08:40:57;;;;;;;2.53;2.20;;;;;;;18.49;22.63;100084.09;4975460;28;20042;-77
2021/04/05 08:43:33;;;;;;;1.60;1.30;;;;;;;18.14;22.39;100074.78;4959891;28;20121;-78
2021/04/05 08:46:19;;;;;;;2.22;1.60;;;;;;;19.08;21.80;100078.19;4975533;28;20086;-78
2021/04/05 08:48:52;;;;;;;1.50;1.27;;;;;;;19.00;21.64;100076.66;4976490;28;20038;-78
2021/04/05 08:51:41;;;;;;;1.08;1.08;;;;;;;18.48;21.94;100052.31;4975205;28;20085;-78
2021/04/05 08:54:08;;;;;;;2.08;1.30;;;;;;;18.76;21.68;100070.94;4975810;28;20486;-78
2021/04/05 08:56:57;;;;;;;3.75;1.30;;;;;;;20.29;20.59;100072.63;4976174;28;20378;-77
2021/04/05 08:59:59;;;;;;;0.88;0.88;;;;;;;20.47;20.16;100069.53;4974510;28;20094;-77
2021/04/05 09:02:35;;;;;;;3.55;1.75;;;;;;;21.43;19.11;100068.28;4962427;28;20034;-78
2021/04/05 09:05:04;;;;;;;1.90;1.23;;;;;;;21.60;18.41;100062.63;4976202;28;20099;-78
2021/04/05 09:08:01;;;;;;;2.03;1.25;;;;;;;20.35;19.19;100071.72;4974315;28;20035;-78
2021/04/05 09:11:04;;;;;;;1.27;1.17;;;;;;;18.82;20.47;100063.59;4974453;28;20038;-78
2021/04/05 09:13:56;;;;;;;2.05;1.30;;;;;;;18.61;21.42;100054.59;4974424;28;20034;-78
2021/04/05 09:16:21;;;;;;;2.33;1.23;;;;;;;19.21;20.67;100047.38;4976032;28;20027;-78
2021/04/05 09:19:17;;;;;;;1.77;1.10;;;;;;;19.71;20.27;100055.91;4974672;28;20098;-78
2021/04/05 09:22:22;;;;;;;2.70;1.63;;;;;;;20.57;20.01;100054.38;4974354;28;20031;-77
2021/04/05 09:25:26;;;;;;;2.55;1.42;;;;;;;20.59;19.68;100049.88;4975525;28;20039;-77
2021/04/05 09:27:57;;;;;;;2.25;1.52;;;;;;;20.45;19.97;100041.63;4937717;29;20506;-77
2021/04/05 09:30:53;;;;;;;10.98;2.13;;;;;;;20.22;20.38;100048.16;4937631;29;20525;-77
2021/04/05 09:33:37;;;;;;;4.90;1.88;;;;;;;21.51;20.39;100046.25;4962511;28;20474;-77
2021/04/05 09:36:27;;;;;;;3.35;2.03;;;;;;;21.94;19.27;100046.00;4973798;28;20030;-78
2021/04/05 09:39:24;;;;;;;2.72;1.70;;;;;;;22.87;18.36;100043.47;4973813;28;20038;-77
2021/04/05 09:42:28;;;;;;;1.85;1.75;;;;;;;23.39;18.16;100038.66;4973609;28;20081;-78
2021/04/05 09:44:58;;;;;;;1.73;1.55;;;;;;;22.59;18.16;100050.75;4958526;28;20031;-79
2021/04/05 09:48:03;;;;;;;3.00;2.00;;;;;;;22.67;18.52;100042.84;4974327;28;20069;-76
2021/04/05 09:51:02;;;;;;;2.50;2.08;;;;;;;21.10;19.60;100036.28;4975936;28;20034;-76
2021/04/05 09:53:46;;;;;;;2.72;2.30;;;;;;;20.60;20.37;100036.53;4974361;28;20104;-76
2021/04/05 09:56:19;;;;;;;6.82;1.98;;;;;;;19.56;21.32;100010.16;4973833;28;20026;-76
2021/04/05 09:58:56;;;;;;;3.92;2.40;;;;;;;19.56;21.15;100046.03;4975219;28;20081;-76
2021/04/05 10:01:29;;;;;;;4.55;2.00;;;;;;;19.89;20.88;100033.81;4975366;28;20038;-76
2021/04/05 10:04:07;;;;;;;2.50;1.60;;;;;;;19.14;21.45;100034.19;4975324;28;20030;-77
2021/04/05 10:06:35;;;;;;;1.67;1.48;;;;;;;19.26;21.49;100022.31;4973303;28;20031;-76
2021/04/05 10:09:04;;;;;;;2.28;2.00;;;;;;;19.79;21.22;100020.69;4976263;28;20030;-76
2021/04/05 10:11:34;;;;;;;1.85;1.73;;;;;;;20.93;20.02;100009.16;4959125;28;20031;-77
2021/04/05 10:14:06;;;;;;;2.15;1.52;;;;;;;21.51;19.78;100008.66;4974972;28;20054;-77
2021/04/05 10:16:35;;;;;;;1.50;1.40;;;;;;;21.53;19.01;100011.88;4973832;28;20378;-77
2021/04/05 10:19:12;;;;;;;4.88;1.38;;;;;;;21.74;19.10;100004.88;4974961;28;20027;-78
2021/04/05 10:21:46;;;;;;;1.63;1.40;;;;;;;22.17;19.03;100010.22;4977980;28;20023;-77
2021/04/05 10:24:12;;;;;;;4.72;2.58;;;;;;;22.33;18.93;100001.69;4973659;28;20038;-77
2021/04/05 10:26:42;;;;;;;2.72;2.30;;;;;;;22.54;18.68;100008.00;4974561;28;20034;-77
2021/04/05 10:29:11;;;;;;;3.45;1.83;;;;;;;23.03;18.38;100002.88;4974772;28;20027;-77
2021/04/05 10:31:38;;;;;;;2.03;1.75;;;;;;;22.96;18.58;99994.59;4974835;28;20030;-77
2021/04/05 10:34:06;;;;;;;2.30;2.10;;;;;;;23.30;18.33;99988.25;4973257;28;20066;-77
2021/04/05 10:36:40;;;;;;;2.63;2.03;;;;;;;22.82;18.06;99992.97;4974997;28;20459;-78
2021/04/05 10:39:06;;;;;;;2.42;2.22;;;;;;;22.09;18.86;99988.97;4994282;28;20088;-77
2021/04/05 10:41:37;;;;;;;1.75;1.65;;;;;;;22.04;19.34;99998.00;4976680;28;20421;-77
2021/04/05 10:44:13;;;;;;;2.33;1.67;;;;;;;22.25;20.35;99994.59;4976431;28;20084;-77
2021/04/05 10:46:45;;;;;;;3.25;1.75;;;;;;;22.08;20.40;99964.72;4976406;28;20030;-78
2021/04/05 10:49:22;;;;;;;2.72;1.70;;;;;;;22.33;20.39;99978.22;4976850;28;20461;-78
2021/04/05 10:51:51;;;;;;;3.53;2.13;;;;;;;21.43;21.23;99969.22;4976053;28;20039;-78
2021/04/05 10:54:27;;;;;;;2.35;1.92;;;;;;;21.15;21.30;99978.38;4976935;28;20030;-78
2021/04/05 10:57:01;;;;;;;4.20;1.92;;;;;;;21.77;21.56;99976.44;4976265;28;20466;-78
2021/04/05 10:59:48;;;;;;;1.70;1.60;;;;;;;21.54;21.41;99963.28;4976512;28;20042;-78
2021/04/05 11:02:33;;;;;;;3.45;3.15;;;;;;;20.97;22.00;99964.66;4976601;28;20126;-77
2021/04/05 11:05:16;;;;;;;2.38;2.05;;;;;;;21.21;22.02;99967.34;4977058;28;20038;-77
2021/04/05 11:07:46;;;;;;;2.83;1.42;;;;;;;21.58;20.52;99966.84;4975842;28;20030;-78
2021/04/05 11:10:22;;;;;;;2.22;1.77;;;;;;;21.06;20.95;99956.34;4975965;28;20105;-78
2021/04/05 11:12:56;;;;;;;1.83;1.58;;;;;;;21.59;21.09;99951.44;4993956;28;20026;-78
2021/04/05 11:15:23;;;;;;;2.28;1.92;;;;;;;21.56;21.28;99957.19;4976136;28;20026;-78
2021/04/05 11:17:52;;;;;;;2.55;2.30;;;;;;;21.82;21.62;99953.25;4994206;28;20493;-78
2021/04/05 11:20:21;;;;;;;3.33;2.25;;;;;;;21.53;21.72;99943.94;4979575;28;20026;-77
2021/04/05 11:22:56;;;;;;;4.10;3.70;;;;;;;21.85;21.29;99938.22;4997044;28;20122;-77
2021/04/05 11:25:31;;;;;;;4.00;3.15;;;;;;;22.00;21.02;99946.31;4979987;28;20037;-78
2021/04/05 11:28:24;;;;;;;5.72;4.20;;;;;;;21.56;21.75;99954.34;4997155;28;20026;-77
2021/04/05 11:30:58;;;;;;;3.78;1.60;;;;;;;21.20;21.49;99946.75;4976518;28;20393;-78
2021/04/05 11:33:27;;;;;;;2.42;1.83;;;;;;;21.73;21.34;99927.59;4979617;28;20499;-78
2021/04/05 11:35:55;;;;;;;3.75;2.90;;;;;;;21.82;21.42;99926.97;4979251;28;20081;-78
2021/04/05 11:38:22;;;;;;;9.07;4.57;;;;;;;21.72;21.59;99928.84;4996590;28;20061;-78
2021/04/05 11:40:54;;;;;;;2.85;2.28;;;;;;;21.99;21.44;99931.34;4979935;28;20027;-77
2021/04/05 11:43:22;;;;;;;3.58;2.83;;;;;;;21.22;21.55;99920.84;4979493;28;20030;-78
2021/04/05 11:45:54;;;;;;;4.57;2.15;;;;;;;20.95;22.11;99927.53;4979369;28;20492;-78
2021/04/05 11:48:23;;;;;;;2.47;2.00;;;;;;;21.18;21.84;99907.56;4978953;28;20022;-78
2021/04/05 11:50:50;;;;;;;2.90;2.45;;;;;;;21.55;22.13;99921.63;4979930;28;20022;-77
2021/04/05 11:53:51;;;;;;;2.10;2.00;;;;;;;21.47;21.77;99911.75;4997295;28;20057;-78
2021/04/05 11:56:16;;;;;;;2.30;2.10;;;;;;;21.37;22.08;99905.13;4989820;28;20420;-78
2021/04/05 11:58:51;;;;;;;4.25;2.33;;;;;;;21.52;22.43;99908.34;4979374;28;20129;-78
2021/04/05 12:01:21;;;;;;;3.30;2.88;;;;;;;21.66;22.34;99910.81;4979273;28;20507;-79
2021/04/05 12:03:49;;;;;;;2.53;2.22;;;;;;;21.37;22.06;99907.94;4996255;28;20030;-79
2021/04/05 12:06:34;;;;;;;2.20;2.03;;;;;;;20.97;22.67;99893.94;4978815;28;20028;-78
2021/04/05 12:09:09;;;;;;;3.95;3.40;;;;;;;20.57;23.80;99899.72;4979176;28;20424;-78